Time;durP1;ratioP1;P1;durP2;ratioP2;P2;SDS_P1;SDS_P2;PMS_P1;PMS_P2;Temp;Humidity;BMP_temperature;BMP_pressure;BME280_temperature;BME280_humidity;BME280_pressure;Samples;Min_cycle;Max_cycle;Signal;HPM_P1;HPM_P2
2022/01/17 00:00:13;;;;;;;16.67;2.97;;;;;;;4.75;100.00;100632.47;4918743;29;20060;-87
2022/01/17 00:02:40;;;;;;;19.38;3.45;;;;;;;4.85;100.00;100623.81;4917766;29;20071;-85
2022/01/17 00:05:07;;;;;;;18.42;3.08;;;;;;;4.75;100.00;100616.84;4917089;29;20024;-86
2022/01/17 00:07:34;;;;;;;24.00;3.13;;;;;;;4.80;100.00;100604.31;4915927;29;20036;-86
2022/01/17 00:10:00;;;;;;;17.42;2.90;;;;;;;4.77;100.00;100620.97;4901026;29;20122;-87
2022/01/17 00:12:27;;;;;;;26.40;3.25;;;;;;;4.70;100.00;100631.00;4917377;29;20035;-87
2022/01/17 00:14:56;;;;;;;21.65;3.47;;;;;;;4.65;100.00;100638.34;4911927;29;20497;-86
2022/01/17 00:19:53;;;;;;;15.02;2.25;;;;;;;4.78;100.00;100642.63;4917719;29;20066;-86
2022/01/17 00:22:20;;;;;;;16.13;3.70;;;;;;;4.68;100.00;100661.50;4915212;29;20104;-87
2022/01/17 00:24:46;;;;;;;10.80;3.03;;;;;;;4.67;100.00;100659.84;4898661;29;20032;-87
2022/01/17 00:27:16;;;;;;;19.98;2.75;;;;;;;4.65;100.00;100672.16;4899778;29;20099;-87
2022/01/17 00:29:42;;;;;;;16.85;2.97;;;;;;;4.67;100.00;100669.44;4912812;29;20032;-87
2022/01/17 00:32:08;;;;;;;20.83;3.03;;;;;;;4.68;100.00;100674.53;4899377;29;20115;-87
2022/01/17 00:34:34;;;;;;;19.70;2.70;;;;;;;4.67;100.00;100678.06;4910340;29;20177;-87
2022/01/17 00:37:00;;;;;;;24.48;3.17;;;;;;;4.68;100.00;100655.50;4915679;29;20040;-88
2022/01/17 00:39:27;;;;;;;11.73;2.45;;;;;;;4.80;100.00;100667.56;4915681;29;20475;-85
2022/01/17 00:41:52;;;;;;;17.45;2.85;;;;;;;4.81;100.00;100669.22;4916160;29;20034;-86
2022/01/17 00:44:22;;;;;;;21.60;2.78;;;;;;;4.77;100.00;100661.78;4900224;29;20036;-86
2022/01/17 00:46:49;;;;;;;17.95;2.90;;;;;;;4.74;100.00;100675.84;4916606;29;20062;-86
2022/01/17 00:49:15;;;;;;;15.85;3.33;;;;;;;4.77;100.00;100678.19;4916669;29;20050;-87
2022/01/17 00:51:41;;;;;;;18.42;3.03;;;;;;;4.79;100.00;100688.50;4916655;29;20035;-86
2022/01/17 00:54:08;;;;;;;10.77;3.08;;;;;;;4.79;100.00;100699.72;4916973;29;20032;-85
2022/01/17 00:56:34;;;;;;;13.65;2.63;;;;;;;4.86;100.00;100697.50;4915356;29;20406;-86
2022/01/17 00:59:00;;;;;;;15.07;2.40;;;;;;;4.77;100.00;100713.81;4916936;29;20040;-87
2022/01/17 01:01:28;;;;;;;14.48;3.50;;;;;;;4.87;100.00;100709.56;4914087;29;20040;-86
2022/01/17 01:03:57;;;;;;;11.05;2.53;;;;;;;4.86;100.00;100728.72;4915646;29;20075;-86
2022/01/17 01:06:23;;;;;;;10.90;2.50;;;;;;;4.88;100.00;100755.44;4915566;29;20031;-87
2022/01/17 01:08:48;;;;;;;16.30;3.10;;;;;;;4.82;100.00;100722.09;4915940;29;20482;-88
2022/01/17 01:11:17;;;;;;;11.23;2.67;;;;;;;4.91;100.00;100710.97;4917347;29;21648;-87
2022/01/17 01:13:43;;;;;;;6.93;2.20;;;;;;;4.88;100.00;100724.22;4897376;29;20044;-86
2022/01/17 01:18:49;;;;;;;15.27;2.53;;;;;;;4.96;100.00;100732.28;4916382;29;20482;-87
2022/01/17 01:21:43;;;;;;;14.95;2.67;;;;;;;4.86;100.00;100734.75;4913609;29;20127;-86
2022/01/17 01:29:31;;;;;;;12.38;2.50;;;;;;;4.99;100.00;100745.06;4911845;29;20059;-87
2022/01/17 01:32:07;;;;;;;15.77;2.70;;;;;;;5.01;100.00;100752.75;4910823;29;20032;-85
2022/01/17 01:34:37;;;;;;;24.70;2.30;;;;;;;4.93;100.00;100744.69;4913260;29;20475;-86
2022/01/17 01:37:04;;;;;;;14.85;3.05;;;;;;;5.01;100.00;100747.53;4916446;29;20399;-86
2022/01/17 01:39:31;;;;;;;16.33;2.80;;;;;;;5.00;100.00;100762.34;4914630;29;20032;-87
2022/01/17 01:41:58;;;;;;;12.15;2.58;;;;;;;4.85;100.00;100747.88;4914177;29;20039;-86
2022/01/17 01:44:25;;;;;;;14.40;2.25;;;;;;;4.86;100.00;100752.97;4916703;29;20515;-87
2022/01/17 01:46:53;;;;;;;13.90;3.42;;;;;;;4.94;100.00;100757.59;4915341;29;20144;-87
2022/01/17 01:49:21;;;;;;;17.13;3.17;;;;;;;4.89;100.00;100753.69;4897983;29;20505;-86
2022/01/17 01:51:47;;;;;;;17.30;3.00;;;;;;;4.93;100.00;100753.34;4916574;29;20384;-87
2022/01/17 01:54:15;;;;;;;11.20;2.60;;;;;;;4.72;100.00;100764.41;4914289;29;20483;-86
2022/01/17 01:56:44;;;;;;;13.30;3.20;;;;;;;4.89;100.00;100767.50;4896921;29;20025;-86
2022/01/17 01:59:10;;;;;;;16.92;2.67;;;;;;;4.89;100.00;100751.91;4898807;29;21554;-86
2022/01/17 02:01:36;;;;;;;14.45;2.85;;;;;;;5.03;100.00;100765.66;4915199;29;20032;-85
2022/01/17 02:04:03;;;;;;;17.55;3.15;;;;;;;4.85;100.00;100766.94;4919119;29;20024;-86
2022/01/17 02:06:28;;;;;;;11.80;2.78;;;;;;;4.68;100.00;100773.38;4920455;29;20032;-86
2022/01/17 02:08:55;;;;;;;11.15;2.90;;;;;;;4.84;100.00;100783.50;4917216;29;20039;-86
2022/01/17 02:11:21;;;;;;;14.70;2.53;;;;;;;4.88;100.00;100767.66;4903401;29;20563;-87
2022/01/17 02:13:46;;;;;;;8.82;2.20;;;;;;;4.91;100.00;100767.41;4920160;29;20055;-87
2022/01/17 02:16:15;;;;;;;11.32;2.45;;;;;;;4.82;100.00;100792.34;4919662;29;20040;-86
2022/01/17 02:18:43;;;;;;;14.00;2.38;;;;;;;4.80;100.00;100802.84;4903752;29;20061;-85
2022/01/17 02:23:35;;;;;;;14.93;3.10;;;;;;;4.85;100.00;100790.34;4920011;29;20040;-86
2022/01/17 02:26:01;;;;;;;15.68;3.22;;;;;;;4.55;100.00;100777.84;4911661;29;20147;-87
2022/01/17 02:28:27;;;;;;;10.02;3.63;;;;;;;4.37;100.00;100765.22;4909529;29;20041;-85
2022/01/17 02:30:56;;;;;;;10.93;2.92;;;;;;;4.35;100.00;100771.47;4915310;29;20486;-86
2022/01/17 02:33:22;;;;;;;13.82;2.55;;;;;;;4.33;100.00;100763.78;4920351;29;20505;-85
2022/01/17 02:35:49;;;;;;;14.57;2.92;;;;;;;4.64;100.00;100779.75;4917985;29;20028;-86
2022/01/17 02:38:15;;;;;;;15.05;3.08;;;;;;;4.38;100.00;100777.28;4918765;29;20028;-86
2022/01/17 02:40:40;;;;;;;11.43;2.70;;;;;;;4.52;100.00;100783.22;4917665;29;20047;-86
2022/01/17 02:43:07;;;;;;;15.20;2.92;;;;;;;4.49;100.00;100788.66;4918280;29;20431;-85
2022/01/17 02:48:24;;;;;;;10.60;2.63;;;;;;;4.34;100.00;100786.25;4910069;29;20040;-85
2022/01/17 02:50:54;;;;;;;13.20;2.63;;;;;;;4.26;100.00;100785.94;4917342;29;20047;-83
2022/01/17 02:53:19;;;;;;;14.27;2.53;;;;;;;4.30;100.00;100784.78;4913114;29;20043;-86
2022/01/17 02:55:50;;;;;;;12.10;2.22;;;;;;;4.26;100.00;100778.16;4917081;29;20036;-86
2022/01/17 02:58:19;;;;;;;9.00;2.42;;;;;;;4.53;100.00;100782.31;4917552;29;20032;-87
2022/01/17 03:00:48;;;;;;;10.40;2.58;;;;;;;4.56;100.00;100782.91;4900107;29;20060;-87
2022/01/17 03:03:20;;;;;;;9.98;2.20;;;;;;;4.62;100.00;100789.44;4917526;29;20095;-86
2022/01/17 03:05:45;;;;;;;16.63;3.03;;;;;;;4.63;100.00;100782.47;4918017;29;20028;-85
2022/01/17 03:08:12;;;;;;;12.35;2.70;;;;;;;4.50;100.00;100791.16;4917455;29;20139;-85
2022/01/17 03:10:39;;;;;;;12.23;2.47;;;;;;;4.66;100.00;100806.47;4901743;29;20031;-85
2022/01/17 03:13:19;;;;;;;16.30;2.47;;;;;;;4.76;100.00;100805.81;4918377;29;20044;-85
2022/01/17 03:15:56;;;;;;;8.80;2.03;;;;;;;4.56;100.00;100785.50;4917050;29;20038;-84
2022/01/17 03:18:23;;;;;;;12.88;2.90;;;;;;;4.72;100.00;100785.22;4917053;29;20095;-85
2022/01/17 03:20:52;;;;;;;13.75;2.58;;;;;;;4.61;100.00;100790.38;4916740;29;20107;-86
2022/01/17 03:23:17;;;;;;;7.97;1.95;;;;;;;4.61;100.00;100805.13;4919086;29;20079;-85
2022/01/17 03:25:44;;;;;;;8.60;2.30;;;;;;;4.58;100.00;100803.59;4910688;29;20032;-85
2022/01/17 03:28:10;;;;;;;9.90;2.05;;;;;;;4.55;100.00;100803.84;4912510;29;20103;-85
2022/01/17 03:30:36;;;;;;;17.02;2.22;;;;;;;4.54;100.00;100810.78;4916777;29;20457;-84
2022/01/17 03:33:12;;;;;;;10.63;1.90;;;;;;;4.57;100.00;100791.53;4917506;29;20028;-86
2022/01/17 03:35:40;;;;;;;15.73;2.65;;;;;;;4.52;100.00;100809.22;4916031;29;20039;-86
2022/01/17 03:38:09;;;;;;;6.38;2.45;;;;;;;4.54;100.00;100817.78;4901152;29;20064;-86
2022/01/17 03:40:36;;;;;;;10.25;2.55;;;;;;;4.53;100.00;100805.72;4916894;29;20035;-86
2022/01/17 03:43:02;;;;;;;13.40;2.30;;;;;;;4.68;100.00;100809.78;4917976;29;20039;-86
2022/01/17 03:45:27;;;;;;;7.15;3.22;;;;;;;4.70;100.00;100814.88;4916513;29;20505;-86
2022/01/17 03:47:53;;;;;;;7.22;2.35;;;;;;;4.67;100.00;100812.50;4915950;29;20028;-86
2022/01/17 03:50:21;;;;;;;10.65;2.63;;;;;;;4.67;100.00;100818.53;4917321;29;20036;-86
2022/01/17 03:52:48;;;;;;;12.60;2.90;;;;;;;4.70;100.00;100839.13;4901292;29;20497;-85
2022/01/17 03:55:18;;;;;;;13.10;2.47;;;;;;;4.84;100.00;100832.09;4900248;29;20414;-85
2022/01/17 03:57:44;;;;;;;13.30;2.60;;;;;;;4.84;100.00;100824.28;4917137;29;20056;-86
2022/01/17 04:00:16;;;;;;;9.95;2.50;;;;;;;4.96;100.00;100838.16;4918191;29;20127;-84
2022/01/17 04:02:42;;;;;;;9.10;3.30;;;;;;;5.08;100.00;100823.41;4916669;29;20091;-86
2022/01/17 04:05:09;;;;;;;11.68;2.90;;;;;;;5.00;100.00;100830.00;4916156;29;20494;-87
2022/01/17 04:07:35;;;;;;;12.63;2.00;;;;;;;4.96;100.00;100831.19;4917453;29;20043;-87
2022/01/17 04:10:01;;;;;;;6.15;2.00;;;;;;;5.05;100.00;100836.66;4917913;29;20109;-87
2022/01/17 04:12:34;;;;;;;11.52;2.72;;;;;;;5.02;100.00;100832.50;4917357;29;20127;-87
2022/01/17 04:15:02;;;;;;;4.32;2.08;;;;;;;4.97;100.00;100825.03;4916237;29;20036;-87
2022/01/17 04:17:39;;;;;;;6.65;1.60;;;;;;;5.08;100.00;100824.25;4902653;29;20083;-87
2022/01/17 04:20:09;;;;;;;6.85;2.10;;;;;;;5.06;100.00;100817.47;4917468;29;20483;-86
2022/01/17 04:22:43;;;;;;;5.95;1.50;;;;;;;5.10;100.00;100819.75;4914419;29;20039;-87
2022/01/17 04:25:08;;;;;;;;;;;;;;;5.15;100.00;100827.22;4911922;29;20032;-87
2022/01/17 04:27:34;;;;;;;7.57;2.03;;;;;;;5.12;100.00;100827.47;4915264;29;20335;-87
2022/01/17 04:30:01;;;;;;;4.85;1.30;;;;;;;5.28;100.00;100827.13;4916409;29;20038;-86
2022/01/17 04:32:26;;;;;;;7.63;1.63;;;;;;;5.33;100.00;100827.59;4901793;29;20043;-87
2022/01/17 04:34:52;;;;;;;3.03;1.13;;;;;;;5.43;100.00;100838.16;4899144;29;20054;-86
2022/01/17 04:37:18;;;;;;;4.65;1.58;;;;;;;5.63;100.00;100830.59;4917407;29;20055;-87
2022/01/17 04:39:43;;;;;;;3.83;0.95;;;;;;;5.81;100.00;100844.81;4916883;29;20040;-86
2022/01/17 04:42:13;;;;;;;7.57;1.30;;;;;;;6.00;100.00;100848.59;4915418;29;20479;-87
2022/01/17 04:47:24;;;;;;;6.10;1.10;;;;;;;5.96;100.00;100868.84;4915502;29;20151;-87
2022/01/17 04:49:51;;;;;;;5.63;1.30;;;;;;;5.89;100.00;100853.81;4909004;29;20035;-88
2022/01/17 04:52:16;;;;;;;5.68;1.15;;;;;;;5.84;100.00;100868.03;4917829;29;20483;-87
2022/01/17 04:54:44;;;;;;;6.38;1.33;;;;;;;5.61;100.00;100863.75;4917050;29;20039;-86
2022/01/17 04:57:11;;;;;;;6.95;1.13;;;;;;;5.62;100.00;100868.00;4916163;29;20040;-86
2022/01/17 04:59:41;;;;;;;8.80;1.30;;;;;;;5.54;100.00;100882.47;4916261;29;20063;-87
2022/01/17 05:02:07;;;;;;;8.20;1.55;;;;;;;5.62;100.00;100875.81;4915171;29;20079;-87
2022/01/17 05:04:33;;;;;;;5.10;1.23;;;;;;;5.68;100.00;100880.56;4916173;29;20491;-87
2022/01/17 05:06:59;;;;;;;6.88;1.13;;;;;;;5.61;100.00;100882.81;4917449;29;20026;-86
2022/01/17 05:09:26;;;;;;;9.10;1.40;;;;;;;5.70;100.00;100876.91;4916879;29;20023;-87
2022/01/17 05:11:52;;;;;;;10.93;1.77;;;;;;;5.50;100.00;100891.47;4916837;29;20055;-86
2022/01/17 05:14:18;;;;;;;8.55;1.80;;;;;;;5.34;100.00;100889.16;4917868;29;20082;-86
2022/01/17 05:16:50;;;;;;;6.15;1.90;;;;;;;5.53;100.00;100899.03;4916070;29;20386;-84
2022/01/17 05:22:00;;;;;;;5.40;1.65;;;;;;;5.43;100.00;100898.91;4912862;29;20416;-85
2022/01/17 05:24:25;;;;;;;3.40;1.30;;;;;;;5.54;100.00;100887.66;4900343;29;20043;-86
2022/01/17 05:26:51;;;;;;;4.90;1.77;;;;;;;5.59;100.00;100876.88;4916908;29;20024;-86
2022/01/17 05:29:17;;;;;;;5.32;1.27;;;;;;;5.70;100.00;100871.69;4916123;29;20039;-85
2022/01/17 05:31:43;;;;;;;10.38;1.25;;;;;;;5.85;100.00;100872.28;4915773;29;20390;-84
2022/01/17 05:34:09;;;;;;;7.45;1.15;;;;;;;5.91;100.00;100876.19;4914050;29;20054;-86
2022/01/17 05:36:34;;;;;;;4.78;1.08;;;;;;;5.99;100.00;100878.22;4915982;29;20073;-86
2022/01/17 05:39:00;;;;;;;7.95;1.27;;;;;;;5.92;100.00;100884.88;4917226;29;20163;-87
2022/01/17 05:41:26;;;;;;;13.88;1.70;;;;;;;5.92;100.00;100887.47;4915770;29;20039;-88
2022/01/17 05:43:52;;;;;;;15.57;2.42;;;;;;;5.98;100.00;100884.38;4914978;29;20035;-86
2022/01/17 05:46:18;;;;;;;6.78;1.50;;;;;;;5.91;100.00;100893.63;4916274;29;20032;-85
2022/01/17 05:48:43;;;;;;;7.22;1.33;;;;;;;6.02;100.00;100882.41;4914556;29;20058;-86
2022/01/17 05:51:09;;;;;;;3.92;1.20;;;;;;;6.04;100.00;100896.97;4916593;29;20039;-87
2022/01/17 05:53:34;;;;;;;7.18;1.10;;;;;;;6.09;100.00;100892.25;4915463;29;20028;-87
2022/01/17 05:56:00;;;;;;;6.60;1.40;;;;;;;6.18;100.00;100887.25;4915452;29;20032;-87
2022/01/17 05:58:25;;;;;;;5.10;1.30;;;;;;;6.14;100.00;100879.66;4916651;29;20483;-86
2022/01/17 06:00:52;;;;;;;6.10;1.20;;;;;;;6.23;100.00;100885.94;4916059;29;20032;-87
2022/01/17 06:03:18;;;;;;;3.85;0.95;;;;;;;6.25;100.00;100883.19;4916102;29;20080;-86
2022/01/17 06:05:44;;;;;;;6.70;1.17;;;;;;;6.26;100.00;100903.94;4916565;29;20483;-87
2022/01/17 06:08:10;;;;;;;4.13;0.90;;;;;;;6.27;100.00;100894.34;4915291;29;20036;-86
2022/01/17 06:10:35;;;;;;;3.60;1.10;;;;;;;6.28;100.00;100904.66;4915346;29;20091;-88
2022/01/17 06:13:01;;;;;;;8.50;1.52;;;;;;;6.36;100.00;100900.59;4915832;29;20036;-88
2022/01/17 06:15:28;;;;;;;3.78;1.23;;;;;;;6.27;100.00;100913.44;4912860;29;20036;-87
2022/01/17 06:17:53;;;;;;;3.90;1.08;;;;;;;6.23;100.00;100913.78;4913962;29;20028;-87
2022/01/17 06:20:19;;;;;;;4.93;1.48;;;;;;;6.26;100.00;100924.81;4913216;29;20039;-86
2022/01/17 06:22:45;;;;;;;8.50;1.27;;;;;;;6.20;100.00;100937.50;4915125;29;20125;-86
2022/01/17 06:25:11;;;;;;;6.35;0.77;;;;;;;6.18;100.00;100934.19;4916478;29;20028;-87
2022/01/17 06:27:38;;;;;;;7.10;1.33;;;;;;;6.21;100.00;100939.16;4915875;29;20028;-88
2022/01/17 06:30:05;;;;;;;6.45;1.77;;;;;;;6.14;100.00;100939.63;4915884;29;20533;-87
2022/01/17 06:32:31;;;;;;;7.32;1.20;;;;;;;6.10;100.00;100924.34;4916949;29;20087;-88
2022/01/17 06:34:58;;;;;;;3.70;0.98;;;;;;;6.09;100.00;100926.13;4915720;29;20032;-88
2022/01/17 06:37:24;;;;;;;6.63;2.13;;;;;;;6.12;100.00;100931.09;4899635;29;20375;-87
2022/01/17 06:39:51;;;;;;;8.25;1.88;;;;;;;6.28;100.00;100945.53;4915852;29;20410;-87
2022/01/17 06:42:17;;;;;;;5.65;1.35;;;;;;;6.21;100.00;100939.16;4915004;29;20024;-84
2022/01/17 06:44:44;;;;;;;7.90;1.25;;;;;;;6.17;100.00;100933.34;4910659;29;20040;-86
2022/01/17 06:47:10;;;;;;;4.45;1.20;;;;;;;6.17;100.00;100943.75;4915326;29;20127;-86
2022/01/17 06:49:35;;;;;;;10.15;1.40;;;;;;;6.05;100.00;100971.63;4918393;29;20467;-87
2022/01/17 06:52:02;;;;;;;6.55;1.73;;;;;;;5.99;100.00;100988.53;4912032;29;20032;-87
2022/01/17 06:54:27;;;;;;;7.28;1.40;;;;;;;6.00;100.00;101000.63;4917274;29;20043;-88
2022/01/17 06:56:53;;;;;;;5.90;1.30;;;;;;;5.66;100.00;100991.88;4919085;29;20036;-88
2022/01/17 06:59:19;;;;;;;9.27;1.58;;;;;;;5.68;100.00;100980.41;4919194;29;20035;-88
2022/01/17 07:01:45;;;;;;;9.50;1.80;;;;;;;5.68;100.00;100971.75;4918986;29;20108;-87
2022/01/17 07:04:11;;;;;;;14.90;2.80;;;;;;;5.68;100.00;100958.72;4920189;29;20028;-87
2022/01/17 07:06:38;;;;;;;9.68;1.73;;;;;;;5.60;100.00;100956.72;4919399;29;20024;-87
2022/01/17 07:09:11;;;;;;;5.70;1.40;;;;;;;5.63;100.00;100953.03;4918752;29;20437;-87
2022/01/17 07:11:38;;;;;;;7.97;2.17;;;;;;;5.58;100.00;100964.63;4919203;29;20028;-87
2022/01/17 07:14:09;;;;;;;11.95;2.63;;;;;;;5.45;100.00;100971.69;4918268;29;20027;-87
2022/01/17 07:16:39;;;;;;;11.75;1.90;;;;;;;5.45;100.00;100963.88;4913696;29;20507;-88
2022/01/17 07:19:05;;;;;;;11.55;2.55;;;;;;;5.27;100.00;100984.28;4917521;29;20036;-87
2022/01/17 07:21:32;;;;;;;13.25;2.88;;;;;;;5.23;100.00;100964.63;4917870;29;20501;-87
2022/01/17 07:23:58;;;;;;;8.15;2.75;;;;;;;5.46;100.00;100975.94;4918551;29;20051;-87
2022/01/17 07:26:24;;;;;;;11.07;2.55;;;;;;;5.47;100.00;100988.03;4919298;29;20035;-87
2022/01/17 07:28:49;;;;;;;12.05;2.58;;;;;;;5.50;100.00;100984.38;4918597;29;20032;-88
2022/01/17 07:31:16;;;;;;;10.35;2.33;;;;;;;5.48;100.00;100988.88;4913267;29;20407;-86
2022/01/17 07:33:41;;;;;;;10.35;3.25;;;;;;;5.53;100.00;100987.59;4913933;29;20084;-87
2022/01/17 07:36:09;;;;;;;7.97;2.67;;;;;;;5.50;100.00;100985.22;4918108;29;20499;-88
2022/01/17 07:38:35;;;;;;;12.73;2.92;;;;;;;5.44;100.00;100998.69;4916899;29;20028;-88
2022/01/17 07:41:02;;;;;;;12.57;3.17;;;;;;;5.48;100.00;101005.31;4915605;29;20032;-88
2022/01/17 07:43:27;;;;;;;8.27;2.70;;;;;;;5.48;100.00;100988.88;4918748;29;20035;-90
2022/01/17 07:46:05;;;;;;;9.60;2.30;;;;;;;5.74;100.00;100994.75;4917411;29;21989;-88
2022/01/17 07:51:18;;;;;;;14.25;2.65;;;;;;;5.83;100.00;100991.47;4922396;29;20160;-88
2022/01/17 07:53:45;;;;;;;9.57;3.88;;;;;;;5.89;100.00;101004.97;4921363;29;20055;-88
2022/01/17 07:56:11;;;;;;;12.10;2.60;;;;;;;5.85;100.00;101014.81;4918886;29;20422;-86
2022/01/17 07:58:38;;;;;;;7.47;1.85;;;;;;;6.07;100.00;101019.25;4915978;29;20103;-86
2022/01/17 08:01:04;;;;;;;8.07;1.92;;;;;;;6.17;100.00;101010.75;4897421;29;20036;-86
2022/01/17 08:03:30;;;;;;;5.63;1.60;;;;;;;6.04;100.00;101011.66;4921655;29;20048;-86
2022/01/17 08:05:56;;;;;;;7.28;2.00;;;;;;;6.07;100.00;101011.44;4932154;29;20035;-88
2022/01/17 08:08:22;;;;;;;11.57;1.98;;;;;;;6.09;100.00;101022.59;4917829;29;20042;-87
2022/01/17 08:10:48;;;;;;;11.73;2.40;;;;;;;6.29;100.00;101025.47;4918308;29;20390;-88
2022/01/17 08:13:13;;;;;;;8.52;2.33;;;;;;;6.21;100.00;101022.59;4915523;29;20118;-88
2022/01/17 08:15:39;;;;;;;3.80;1.33;;;;;;;6.25;100.00;101024.88;4897519;29;20044;-88
2022/01/17 08:18:05;;;;;;;12.27;2.45;;;;;;;6.20;100.00;101031.38;4915607;29;20093;-88
2022/01/17 08:20:31;;;;;;;9.50;1.88;;;;;;;6.24;100.00;101030.19;4915945;29;20032;-88
2022/01/17 08:22:57;;;;;;;5.32;1.55;;;;;;;6.33;100.00;101015.63;4919195;29;20047;-89
2022/01/17 08:25:26;;;;;;;8.70;2.53;;;;;;;6.38;100.00;101022.16;4906544;29;20032;-88
2022/01/17 08:27:52;;;;;;;11.93;1.85;;;;;;;6.40;100.00;101030.69;4919039;29;20036;-86
2022/01/17 08:30:18;;;;;;;7.18;1.48;;;;;;;6.49;100.00;101036.16;4918550;29;20391;-86
2022/01/17 08:32:44;;;;;;;7.88;2.50;;;;;;;6.35;100.00;101040.66;4918813;29;20040;-86
2022/01/17 08:35:09;;;;;;;8.02;1.60;;;;;;;6.22;100.00;101045.97;4905895;29;20024;-87
2022/01/17 08:37:35;;;;;;;9.80;1.95;;;;;;;6.27;100.00;101041.22;4918431;29;20036;-86
2022/01/17 08:40:02;;;;;;;6.55;1.55;;;;;;;6.54;100.00;101040.03;4913221;29;20084;-86
2022/01/17 08:42:30;;;;;;;7.68;2.08;;;;;;;6.67;100.00;101045.13;4901435;29;20036;-85
2022/01/17 08:44:59;;;;;;;4.50;1.38;;;;;;;6.78;100.00;101048.72;4917348;29;20036;-85
2022/01/17 08:47:25;;;;;;;6.00;1.83;;;;;;;6.86;100.00;101048.94;4916644;29;20036;-86
2022/01/17 08:49:51;;;;;;;3.45;1.27;;;;;;;6.96;100.00;101046.41;4916254;29;20033;-85
2022/01/17 08:52:18;;;;;;;6.20;1.50;;;;;;;7.18;100.00;101048.16;4912263;29;20044;-80
2022/01/17 08:54:44;;;;;;;6.28;1.50;;;;;;;7.27;100.00;101057.06;4909560;29;20034;-80
2022/01/17 08:57:11;;;;;;;5.05;1.30;;;;;;;7.40;100.00;101068.19;4913448;29;20032;-80
2022/01/17 08:59:37;;;;;;;5.85;1.20;;;;;;;7.26;100.00;101069.28;4915495;29;20046;-80
2022/01/17 09:02:03;;;;;;;10.70;1.85;;;;;;;7.43;100.00;101061.88;4896219;29;20036;-81
2022/01/17 09:04:29;;;;;;;4.78;1.10;;;;;;;7.55;100.00;101075.72;4913574;29;20047;-81
2022/01/17 09:06:55;;;;;;;4.60;1.25;;;;;;;7.60;100.00;101073.59;4914768;29;20072;-81
2022/01/17 09:09:20;;;;;;;6.90;1.40;;;;;;;7.72;100.00;101066.53;4911267;29;20035;-81
2022/01/17 09:11:46;;;;;;;2.95;1.15;;;;;;;7.72;100.00;101064.72;4913969;29;20028;-81
2022/01/17 09:14:12;;;;;;;6.38;1.55;;;;;;;7.81;100.00;101071.00;4908153;29;20052;-81
2022/01/17 09:16:37;;;;;;;6.65;1.92;;;;;;;7.93;100.00;101070.94;4898570;29;20032;-81
2022/01/17 09:19:05;;;;;;;4.88;1.67;;;;;;;8.01;100.00;101063.28;4915814;29;20028;-81
2022/01/17 09:21:34;;;;;;;7.50;2.08;;;;;;;8.05;100.00;101063.88;4900991;29;20045;-81
2022/01/17 09:24:00;;;;;;;7.28;1.65;;;;;;;8.18;100.00;101063.66;4897492;29;20059;-81
2022/01/17 09:26:27;;;;;;;4.20;1.40;;;;;;;8.27;100.00;101068.94;4914308;29;20032;-81
2022/01/17 09:28:54;;;;;;;7.78;1.50;;;;;;;8.47;100.00;101065.63;4914301;29;20517;-81
2022/01/17 09:31:20;;;;;;;17.20;5.40;;;;;;;8.49;100.00;101064.53;4912620;29;20036;-82
2022/01/17 09:33:46;;;;;;;7.13;1.75;;;;;;;8.58;100.00;101057.69;4911286;29;20029;-82
2022/01/17 09:36:15;;;;;;;5.65;1.50;;;;;;;8.65;99.83;101069.31;4915020;29;20467;-84
2022/01/17 09:38:41;;;;;;;7.10;1.98;;;;;;;8.69;99.05;101081.19;4911999;29;20039;-84
2022/01/17 09:41:09;;;;;;;10.55;6.78;;;;;;;8.47;99.41;101079.53;4913283;29;20110;-83
2022/01/17 09:43:38;;;;;;;12.38;6.00;;;;;;;8.47;99.54;101083.94;4910519;29;20035;-83
2022/01/17 09:46:05;;;;;;;17.73;5.93;;;;;;;8.73;98.68;101094.00;4913901;29;20493;-83
2022/01/17 09:48:36;;;;;;;12.63;5.15;;;;;;;8.89;97.05;101102.22;4913797;29;20036;-83
2022/01/17 09:51:15;;;;;;;19.60;6.20;;;;;;;9.02;95.97;101106.38;4914472;29;20059;-83
2022/01/17 09:53:42;;;;;;;12.73;4.40;;;;;;;9.09;94.90;101095.22;4913955;29;20364;-83
2022/01/17 09:56:08;;;;;;;10.70;3.83;;;;;;;9.16;94.70;101082.41;4899833;29;20040;-83
2022/01/17 09:58:38;;;;;;;4.15;1.30;;;;;;;9.26;93.52;101083.28;4915210;29;20184;-83
2022/01/17 10:01:04;;;;;;;3.85;1.33;;;;;;;9.33;93.16;101087.97;4896026;29;20037;-82
2022/01/17 10:03:32;;;;;;;4.90;1.23;;;;;;;9.42;92.70;101098.47;4913991;29;20575;-82
2022/01/17 10:05:58;;;;;;;5.97;1.40;;;;;;;9.47;91.48;101089.38;4913633;29;20491;-83
2022/01/17 10:08:24;;;;;;;5.25;1.35;;;;;;;9.57;90.88;101096.28;4908134;29;20040;-84
2022/01/17 10:10:58;;;;;;;5.57;1.20;;;;;;;9.57;90.30;101096.28;4912590;29;20082;-87
2022/01/17 10:13:45;;;;;;;4.68;1.40;;;;;;;9.71;88.97;101108.16;4914994;29;20032;-87
2022/01/17 10:16:14;;;;;;;5.00;1.17;;;;;;;9.79;89.14;101112.69;4914835;29;20071;-85
2022/01/17 10:19:06;;;;;;;6.07;1.17;;;;;;;9.90;88.05;101121.41;4917048;29;20028;-85
2022/01/17 10:21:53;;;;;;;9.65;1.70;;;;;;;9.93;88.92;101136.88;4911912;29;20079;-85
2022/01/17 10:30:13;;;;;;;4.20;1.08;;;;;;;9.58;94.72;101150.38;4919127;29;20032;-85
2022/01/17 10:35:34;;;;;;;6.80;1.38;;;;;;;9.45;97.49;101157.69;4918611;29;20375;-85
2022/01/17 10:38:19;;;;;;;6.20;1.00;;;;;;;9.37;97.85;101153.09;4918682;29;20036;-85
2022/01/17 10:40:53;;;;;;;6.68;1.17;;;;;;;9.50;98.32;101160.72;4916338;29;20055;-85
2022/01/17 10:43:34;;;;;;;4.38;1.00;;;;;;;9.48;99.21;101160.03;4918132;29;20418;-86
2022/01/17 10:46:05;;;;;;;7.07;1.20;;;;;;;9.38;98.81;101167.88;4918321;29;20067;-85
2022/01/17 10:48:34;;;;;;;14.05;4.43;;;;;;;9.35;100.00;101198.75;4917803;29;20031;-85
2022/01/17 10:51:00;;;;;;;13.40;2.97;;;;;;;9.29;100.00;101202.72;4916440;29;20043;-86
2022/01/17 10:53:26;;;;;;;14.98;4.43;;;;;;;8.90;100.00;101190.28;4918471;29;20028;-85
2022/01/17 10:55:54;;;;;;;10.00;4.05;;;;;;;8.74;100.00;101208.25;4918025;29;20068;-85
2022/01/17 10:58:27;;;;;;;10.75;3.05;;;;;;;8.73;100.00;101203.97;4917222;29;20055;-87
2022/01/17 11:01:02;;;;;;;14.15;4.63;;;;;;;8.74;100.00;101208.25;4917935;29;20123;-85
2022/01/17 11:03:34;;;;;;;7.72;2.13;;;;;;;8.79;100.00;101212.16;4910838;29;20036;-86
2022/01/17 11:06:06;;;;;;;7.05;2.20;;;;;;;8.97;100.00;101194.03;4916205;29;20111;-85
2022/01/17 11:08:33;;;;;;;9.23;2.85;;;;;;;9.10;100.00;101187.75;4912552;29;20482;-85
2022/01/17 11:11:02;;;;;;;7.82;1.63;;;;;;;9.22;100.00;101189.31;4918143;29;20498;-86
2022/01/17 11:13:34;;;;;;;6.50;1.45;;;;;;;9.45;100.00;101196.16;4918184;29;20052;-84
2022/01/17 11:16:04;;;;;;;5.95;1.30;;;;;;;9.54;100.00;101180.44;4919049;29;20042;-85
2022/01/17 11:18:30;;;;;;;6.63;1.45;;;;;;;9.57;100.00;101180.16;4918105;29;20051;-85
2022/01/17 11:21:03;;;;;;;7.38;1.75;;;;;;;9.61;100.00;101174.66;4915837;29;20040;-84
2022/01/17 11:23:29;;;;;;;9.93;1.90;;;;;;;9.67;100.00;101187.25;4915802;29;20068;-85
2022/01/17 11:25:56;;;;;;;6.82;1.17;;;;;;;9.66;100.00;101189.03;4918798;29;20032;-83
2022/01/17 11:28:27;;;;;;;6.68;1.80;;;;;;;9.60;100.00;101186.94;4914451;29;20032;-84
2022/01/17 11:30:56;;;;;;;10.50;2.65;;;;;;;9.58;100.00;101196.75;4914433;29;20031;-85
2022/01/17 11:33:22;;;;;;;11.50;2.95;;;;;;;9.38;100.00;101195.84;4916591;29;20438;-83
2022/01/17 11:35:51;;;;;;;9.20;3.17;;;;;;;9.29;100.00;101207.97;4901283;29;20479;-86
2022/01/17 11:38:26;;;;;;;9.57;2.60;;;;;;;9.33;100.00;101213.78;4917194;29;20042;-86
2022/01/17 11:41:00;;;;;;;11.68;3.30;;;;;;;9.20;100.00;101214.81;4916142;29;20047;-86
2022/01/17 11:43:33;;;;;;;6.68;2.33;;;;;;;9.05;100.00;101211.72;4917868;29;20047;-84
2022/01/17 11:46:21;;;;;;;7.65;2.10;;;;;;;9.05;100.00;101205.69;4918048;29;20107;-85
2022/01/17 11:48:50;;;;;;;6.50;1.90;;;;;;;8.99;100.00;101205.22;4916795;29;20035;-86
2022/01/17 11:51:16;;;;;;;9.23;1.83;;;;;;;9.06;100.00;101199.47;4917012;29;20084;-85
2022/01/17 11:53:45;;;;;;;9.80;2.85;;;;;;;8.98;100.00;101200.94;4919113;29;20028;-86
2022/01/17 11:56:16;;;;;;;8.93;2.47;;;;;;;9.03;100.00;101202.31;4919351;29;20120;-87